createdAt,value
2023-02-01T00:00:42.212Z,11.38
2023-02-01T00:01:44.358Z,12.60
2023-02-01T00:02:46.397Z,12.60
2023-02-01T00:03:48.442Z,13.03
2023-02-01T00:04:50.368Z,14.02
2023-02-01T00:05:59.876Z,14.93
2023-02-01T00:07:02.252Z,17.73
2023-02-01T00:08:04.511Z,18.05
2023-02-01T00:09:06.509Z,14.25
2023-02-01T00:10:09.647Z,14.55
2023-02-01T00:11:13.032Z,17.17
2023-02-01T00:12:14.970Z,14.85
2023-02-01T00:13:16.983Z,15.95
2023-02-01T00:14:18.905Z,12.73
2023-02-01T00:15:21.787Z,12.18
2023-02-01T00:16:27.119Z,11.75
2023-02-01T00:17:29.073Z,11.70
2023-02-01T00:18:31.151Z,14.30
2023-02-01T00:19:33.844Z,13.10
2023-02-01T00:20:35.841Z,14.63
2023-02-01T00:21:37.968Z,13.30
2023-02-01T00:22:39.915Z,13.52
2023-02-01T00:23:42.229Z,14.32
2023-02-01T00:24:44.277Z,13.00
2023-02-01T00:25:46.298Z,13.88
2023-02-01T00:26:48.427Z,16.63
2023-02-01T00:27:51.461Z,16.88
2023-02-01T00:28:53.912Z,18.67
2023-02-01T00:29:56.848Z,14.15
2023-02-01T00:31:03.808Z,17.58
2023-02-01T00:32:05.930Z,15.77
2023-02-01T00:33:07.903Z,16.25
2023-02-01T00:34:14.450Z,17.00
2023-02-01T00:35:16.448Z,20.83
2023-02-01T00:36:18.654Z,21.33
2023-02-01T00:37:20.677Z,18.25
2023-02-01T00:38:23.600Z,15.73
2023-02-01T00:39:25.567Z,16.17
2023-02-01T00:40:27.824Z,14.90
2023-02-01T00:41:29.752Z,16.90
2023-02-01T00:42:32.581Z,17.02
2023-02-01T00:43:35.499Z,17.63
2023-02-01T00:44:37.460Z,16.67
2023-02-01T00:45:39.415Z,15.77
2023-02-01T00:46:41.406Z,15.07
2023-02-01T00:47:43.618Z,14.73
2023-02-01T00:48:45.879Z,17.17
2023-02-01T00:49:47.904Z,17.25
2023-02-01T00:50:49.911Z,16.55
2023-02-01T00:51:52.518Z,16.65
2023-02-01T00:52:54.473Z,19.08
2023-02-01T00:53:56.999Z,17.33
2023-02-01T00:54:59.015Z,18.13
2023-02-01T00:56:01.778Z,18.23
2023-02-01T00:57:04.440Z,16.80
2023-02-01T00:58:07.091Z,16.42
2023-02-01T00:59:12.896Z,14.05
2023-02-01T01:00:15.397Z,16.92
2023-02-01T01:01:26.039Z,17.33
2023-02-01T01:02:28.676Z,16.70
2023-02-01T01:03:34.478Z,17.52
2023-02-01T01:04:36.503Z,17.67
2023-02-01T01:05:38.492Z,17.13
2023-02-01T01:06:40.575Z,18.00
2023-02-01T01:07:42.579Z,19.20
2023-02-01T01:08:45.137Z,17.08
2023-02-01T01:09:47.988Z,17.42
2023-02-01T01:10:50.395Z,18.17
2023-02-01T01:11:53.983Z,21.17
2023-02-01T01:12:56.091Z,17.58
2023-02-01T01:13:59.696Z,19.42
2023-02-01T01:15:01.650Z,17.40
2023-02-01T01:16:06.139Z,18.17
2023-02-01T01:17:08.374Z,20.00
2023-02-01T01:18:10.562Z,16.92
2023-02-01T01:19:13.017Z,17.52
2023-02-01T01:20:15.008Z,15.43
2023-02-01T01:21:18.131Z,13.70
2023-02-01T01:22:20.184Z,14.48
2023-02-01T01:23:22.322Z,15.25
2023-02-01T01:24:24.326Z,13.98
2023-02-01T01:25:26.287Z,14.98
2023-02-01T01:26:30.106Z,12.20
2023-02-01T01:27:32.343Z,13.00
2023-02-01T01:28:34.284Z,12.95
2023-02-01T01:29:36.411Z,13.43
2023-02-01T01:30:38.628Z,13.35
2023-02-01T01:31:40.657Z,13.10
2023-02-01T01:32:42.696Z,12.52
2023-02-01T01:33:45.502Z,14.50
2023-02-01T01:34:47.754Z,15.23
2023-02-01T01:35:49.731Z,14.93
2023-02-01T01:36:51.847Z,14.73
2023-02-01T01:37:53.976Z,13.60
2023-02-01T01:38:56.076Z,13.48
2023-02-01T01:39:58.563Z,14.02
2023-02-01T01:41:00.728Z,13.35
2023-02-01T01:42:02.958Z,14.10
2023-02-01T01:43:15.113Z,12.43
2023-02-01T01:44:54.876Z,13.45
2023-02-01T01:45:57.132Z,13.75
2023-02-01T01:46:59.370Z,15.45
2023-02-01T01:49:27.013Z,15.93
2023-02-01T01:50:40.643Z,13.05
2023-02-01T01:51:56.316Z,15.70
2023-02-01T01:53:01.713Z,14.60
2023-02-01T01:54:10.157Z,13.13
2023-02-01T01:55:12.738Z,13.13
2023-02-01T01:56:15.625Z,16.35
2023-02-01T01:57:38.859Z,14.98
2023-02-01T01:59:19.602Z,15.63
2023-02-01T02:00:22.543Z,20.10
2023-02-01T02:01:26.748Z,19.93
2023-02-01T02:02:31.985Z,22.63
2023-02-01T02:03:45.578Z,21.13
2023-02-01T02:04:48.533Z,19.92
2023-02-01T02:05:51.863Z,21.40
2023-02-01T02:07:05.640Z,17.67
2023-02-01T02:08:07.652Z,18.40
2023-02-01T02:09:09.998Z,18.40
2023-02-01T02:10:13.085Z,20.60
2023-02-01T02:11:17.637Z,18.98
2023-02-01T02:12:19.740Z,21.87
2023-02-01T02:13:21.959Z,21.50
2023-02-01T02:14:25.662Z,19.77
2023-02-01T02:15:27.980Z,20.75
2023-02-01T02:16:51.775Z,20.08
2023-02-01T02:18:20.804Z,20.30
2023-02-01T02:19:35.390Z,20.38
2023-02-01T02:20:53.692Z,20.30
2023-02-01T02:22:17.104Z,20.48
2023-02-01T02:23:36.976Z,16.60
2023-02-01T02:25:00.142Z,18.83
2023-02-01T02:26:26.431Z,17.05
2023-02-01T02:27:50.401Z,20.50
2023-02-01T02:29:11.711Z,17.27
2023-02-01T02:30:13.703Z,18.15
2023-02-01T02:31:40.287Z,17.60
2023-02-01T02:33:04.268Z,17.63
2023-02-01T02:34:31.942Z,18.75
2023-02-01T02:35:54.317Z,16.80
2023-02-01T02:37:08.860Z,15.00
2023-02-01T02:38:24.262Z,15.17
2023-02-01T02:39:34.767Z,15.55
2023-02-01T02:41:39.010Z,15.38
2023-02-01T02:43:14.806Z,14.50
2023-02-01T02:44:54.162Z,15.35
2023-02-01T02:46:20.648Z,14.23
2023-02-01T02:47:46.541Z,14.93
2023-02-01T02:49:14.916Z,13.20
2023-02-01T02:50:56.061Z,13.93
2023-02-01T02:52:28.595Z,14.98
2023-02-01T02:53:55.576Z,15.37
2023-02-01T02:55:00.413Z,16.73
2023-02-01T02:56:25.003Z,14.80
2023-02-01T02:57:45.486Z,12.65
2023-02-01T02:59:07.239Z,11.32
2023-02-01T03:00:35.709Z,12.43
2023-02-01T03:01:58.201Z,13.05
2023-02-01T03:03:19.905Z,12.52
2023-02-01T03:04:22.214Z,16.00
2023-02-01T03:05:26.524Z,16.35
2023-02-01T03:06:28.739Z,14.50
2023-02-01T03:07:51.996Z,15.98
2023-02-01T03:08:58.080Z,14.88
2023-02-01T03:10:05.289Z,17.73
2023-02-01T03:11:13.859Z,17.75
2023-02-01T03:12:36.113Z,17.35
2023-02-01T03:13:57.657Z,16.23
2023-02-01T03:15:13.696Z,18.23
2023-02-01T03:16:42.744Z,15.20
2023-02-01T03:17:46.567Z,14.07
2023-02-01T03:18:48.690Z,14.47
2023-02-01T03:19:54.191Z,13.52
2023-02-01T03:20:59.689Z,12.30
2023-02-01T03:22:06.530Z,13.15
2023-02-01T03:23:09.496Z,13.77
2023-02-01T03:24:21.531Z,14.05
2023-02-01T03:25:29.007Z,14.30
2023-02-01T03:26:34.215Z,13.43
2023-02-01T03:27:46.559Z,19.63
2023-02-01T03:28:56.959Z,12.50
2023-02-01T03:30:11.217Z,13.83
2023-02-01T03:31:15.167Z,13.55
2023-02-01T03:32:18.441Z,13.48
2023-02-01T03:33:24.172Z,13.30
2023-02-01T03:34:26.661Z,13.10
2023-02-01T03:35:31.566Z,13.50
2023-02-01T03:36:45.695Z,13.35
2023-02-01T03:37:49.232Z,13.30
2023-02-01T03:39:24.144Z,15.50
2023-02-01T03:40:28.826Z,15.73
2023-02-01T03:41:54.222Z,15.20
2023-02-01T03:42:58.437Z,14.50
2023-02-01T03:44:14.993Z,14.65
2023-02-01T03:45:32.365Z,16.58
2023-02-01T03:46:52.103Z,16.40
2023-02-01T03:48:01.138Z,16.63
2023-02-01T03:49:09.100Z,15.05
2023-02-01T03:50:17.661Z,15.43
2023-02-01T03:51:23.059Z,17.88
2023-02-01T03:52:32.463Z,15.20
2023-02-01T03:53:37.355Z,16.40
2023-02-01T03:54:42.744Z,16.20
2023-02-01T03:55:44.971Z,15.15
2023-02-01T03:56:49.409Z,15.73
2023-02-01T03:58:02.464Z,14.00
2023-02-01T03:59:04.698Z,14.57
2023-02-01T04:00:18.512Z,13.98
2023-02-01T04:01:20.681Z,15.27
2023-02-01T04:02:22.972Z,17.42
2023-02-01T04:03:26.626Z,14.38
2023-02-01T04:04:28.604Z,13.43
2023-02-01T04:05:31.853Z,15.68
2023-02-01T04:06:38.011Z,18.38
2023-02-01T04:07:40.876Z,15.63
2023-02-01T04:08:42.837Z,15.85
2023-02-01T04:09:44.802Z,13.45
2023-02-01T04:10:46.899Z,13.38
2023-02-01T04:11:48.796Z,15.07
2023-02-01T04:12:50.795Z,12.85
2023-02-01T04:13:52.749Z,14.25
2023-02-01T04:14:54.709Z,13.43
2023-02-01T04:15:56.677Z,13.07
2023-02-01T04:16:58.644Z,12.00
2023-02-01T04:18:00.562Z,13.10
2023-02-01T04:19:02.622Z,11.90
2023-02-01T04:20:05.761Z,15.23
2023-02-01T04:21:07.990Z,12.27
2023-02-01T04:22:09.969Z,13.38
2023-02-01T04:23:12.057Z,14.90
2023-02-01T04:24:14.002Z,12.32
2023-02-01T04:25:18.322Z,11.67
2023-02-01T04:26:22.723Z,12.90
2023-02-01T04:28:25.600Z,14.93
2023-02-01T04:29:27.596Z,13.05
2023-02-01T04:30:30.372Z,12.27
2023-02-01T04:31:32.517Z,11.93
2023-02-01T04:32:34.539Z,13.48
2023-02-01T04:33:36.567Z,14.82
2023-02-01T04:34:38.824Z,14.27
2023-02-01T04:35:41.376Z,12.93
2023-02-01T04:36:44.550Z,12.52
2023-02-01T04:37:48.422Z,11.52
2023-02-01T04:38:51.404Z,12.90
2023-02-01T04:39:53.351Z,11.40
2023-02-01T04:40:55.311Z,12.32
2023-02-01T04:41:57.237Z,12.77
2023-02-01T04:42:59.270Z,11.73
2023-02-01T04:44:01.405Z,12.15
2023-02-01T04:45:03.835Z,10.27
2023-02-01T04:46:05.899Z,12.50
2023-02-01T04:47:07.967Z,13.82
2023-02-01T04:48:09.920Z,11.45
2023-02-01T04:49:13.074Z,13.57
2023-02-01T04:50:15.107Z,12.55
2023-02-01T04:51:17.047Z,14.75
2023-02-01T04:52:19.038Z,16.23
2023-02-01T04:53:20.986Z,12.77
2023-02-01T04:54:22.923Z,12.15
2023-02-01T04:55:24.877Z,12.07
2023-02-01T04:56:26.837Z,11.65
2023-02-01T04:57:28.854Z,11.68
2023-02-01T04:58:30.904Z,13.07
2023-02-01T04:59:32.907Z,13.13
2023-02-01T05:00:35.021Z,13.95
2023-02-01T05:01:37.004Z,12.70
2023-02-01T05:02:38.952Z,10.13
2023-02-01T05:03:40.918Z,11.27
2023-02-01T05:04:42.908Z,12.43
2023-02-01T05:05:44.931Z,13.13
2023-02-01T05:06:46.982Z,11.50
2023-02-01T05:07:48.948Z,11.00
2023-02-01T05:08:51.090Z,11.75
2023-02-01T05:09:53.056Z,13.68
2023-02-01T05:10:55.026Z,15.90
2023-02-01T05:12:15.653Z,17.25
2023-02-01T05:13:36.186Z,13.02
2023-02-01T05:14:38.148Z,15.48
2023-02-01T05:15:40.121Z,19.90
2023-02-01T05:16:42.162Z,16.67
2023-02-01T05:17:44.145Z,16.95
2023-02-01T05:18:46.216Z,19.95
2023-02-01T05:19:48.112Z,14.38
2023-02-01T05:20:50.053Z,19.27
2023-02-01T05:21:51.990Z,16.75
2023-02-01T05:22:54.012Z,18.80
2023-02-01T05:24:10.932Z,17.23
2023-02-01T05:25:13.058Z,16.95
2023-02-01T05:26:15.042Z,17.27
2023-02-01T05:27:17.056Z,16.33
2023-02-01T05:28:19.027Z,14.63
2023-02-01T05:29:21.105Z,14.93
2023-02-01T05:30:23.433Z,15.45
2023-02-01T05:31:25.662Z,15.00
2023-02-01T05:32:27.731Z,15.10
2023-02-01T05:33:29.798Z,13.73
2023-02-01T05:34:31.950Z,12.63
2023-02-01T05:35:34.193Z,14.55
2023-02-01T05:36:36.188Z,12.93
2023-02-01T05:37:38.194Z,13.00
2023-02-01T05:38:40.288Z,12.65
2023-02-01T05:39:42.232Z,14.75
2023-02-01T05:40:50.485Z,14.25
2023-02-01T05:41:52.573Z,12.00
2023-02-01T05:42:54.623Z,10.98
2023-02-01T05:43:56.733Z,11.88
2023-02-01T05:44:58.653Z,14.10
2023-02-01T05:46:00.877Z,14.13
2023-02-01T05:47:02.896Z,12.70
2023-02-01T05:48:05.166Z,14.77
2023-02-01T05:49:07.194Z,12.98
2023-02-01T05:50:09.688Z,13.05
2023-02-01T05:51:12.446Z,13.65
2023-02-01T05:52:14.510Z,12.95
2023-02-01T05:53:16.522Z,15.00
2023-02-01T05:54:18.575Z,13.30
2023-02-01T05:55:20.497Z,13.43
2023-02-01T05:56:22.793Z,12.43
2023-02-01T05:57:24.767Z,12.70
2023-02-01T05:58:26.855Z,15.23
2023-02-01T05:59:28.869Z,14.63
2023-02-01T06:00:31.190Z,13.30
2023-02-01T06:01:33.174Z,15.32
2023-02-01T06:02:35.139Z,20.50
2023-02-01T06:03:37.522Z,17.75
2023-02-01T06:04:40.187Z,17.05
2023-02-01T06:05:44.465Z,18.02
2023-02-01T06:06:46.518Z,17.60
2023-02-01T06:07:49.142Z,19.05
2023-02-01T06:08:51.076Z,19.40
2023-02-01T06:09:53.036Z,14.52
2023-02-01T06:11:05.998Z,15.13
2023-02-01T06:12:08.206Z,13.95
2023-02-01T06:13:10.165Z,15.85
2023-02-01T06:14:12.172Z,13.73
2023-02-01T06:15:16.742Z,13.48
2023-02-01T06:16:18.979Z,13.98
2023-02-01T06:17:20.972Z,14.55
2023-02-01T06:18:22.943Z,12.85
2023-02-01T06:19:25.493Z,17.20
2023-02-01T06:20:27.524Z,13.85
2023-02-01T06:21:29.511Z,13.65
2023-02-01T06:22:31.540Z,14.93
2023-02-01T06:23:33.441Z,14.15
2023-02-01T06:24:35.408Z,19.10
2023-02-01T06:25:38.660Z,16.25
2023-02-01T06:26:41.179Z,15.15
2023-02-01T06:27:43.192Z,17.75
2023-02-01T06:28:45.473Z,17.10
2023-02-01T06:29:47.434Z,17.70
2023-02-01T06:30:49.461Z,15.60
2023-02-01T06:31:51.882Z,16.35
2023-02-01T06:32:54.763Z,14.95
2023-02-01T06:33:56.723Z,18.52
2023-02-01T06:34:59.103Z,16.10
2023-02-01T06:36:04.528Z,13.15
2023-02-01T06:37:06.572Z,18.55
2023-02-01T06:38:08.803Z,14.23
2023-02-01T06:39:10.786Z,14.70
2023-02-01T06:40:13.029Z,12.13
2023-02-01T06:41:15.534Z,14.75
2023-02-01T06:42:17.570Z,14.68
2023-02-01T06:43:19.478Z,18.45
2023-02-01T06:44:21.934Z,14.32
2023-02-01T06:45:23.864Z,15.40
2023-02-01T06:46:26.003Z,15.38
2023-02-01T06:47:29.780Z,16.75
2023-02-01T06:48:32.138Z,16.05
2023-02-01T06:49:34.200Z,14.85
2023-02-01T06:50:36.296Z,12.37
2023-02-01T06:51:38.293Z,15.13
2023-02-01T06:52:40.269Z,14.55
2023-02-01T06:53:42.396Z,14.82
2023-02-01T06:54:44.361Z,14.98
2023-02-01T06:56:04.800Z,16.55
2023-02-01T06:57:06.765Z,16.55
2023-02-01T06:58:08.710Z,16.08
2023-02-01T06:59:12.202Z,15.93
2023-02-01T07:00:14.807Z,15.27
2023-02-01T07:01:17.701Z,16.23
2023-02-01T07:02:19.703Z,18.55
2023-02-01T07:03:21.872Z,17.40
2023-02-01T07:04:23.861Z,19.13
2023-02-01T07:05:25.803Z,27.30
2023-02-01T07:06:27.924Z,32.63
2023-02-01T07:07:29.866Z,35.10
2023-02-01T07:08:33.442Z,33.38
2023-02-01T07:09:35.479Z,31.45
2023-02-01T07:10:38.152Z,32.28
2023-02-01T07:11:44.181Z,28.20
2023-02-01T07:12:46.205Z,30.60
2023-02-01T07:13:48.260Z,30.40
2023-02-01T07:14:50.524Z,28.05
2023-02-01T07:15:52.687Z,24.70
2023-02-01T07:16:54.901Z,26.67
2023-02-01T07:17:57.072Z,20.75
2023-02-01T07:19:00.766Z,18.13
2023-02-01T07:20:03.015Z,17.25
2023-02-01T07:21:05.142Z,18.45
2023-02-01T07:22:07.139Z,18.37
2023-02-01T07:23:12.238Z,15.48
2023-02-01T07:24:15.668Z,13.43
2023-02-01T07:25:17.597Z,13.50
2023-02-01T07:26:19.628Z,16.63
2023-02-01T07:27:22.373Z,14.40
2023-02-01T07:28:25.392Z,12.73
2023-02-01T07:29:27.457Z,12.93
2023-02-01T07:30:29.855Z,12.73
2023-02-01T07:31:31.870Z,11.20
2023-02-01T07:32:33.930Z,13.23
2023-02-01T07:33:36.291Z,14.77
2023-02-01T07:34:38.200Z,22.55
2023-02-01T07:35:40.181Z,16.25
2023-02-01T07:36:42.918Z,16.90
2023-02-01T07:37:44.901Z,12.85
2023-02-01T07:38:50.045Z,17.45
2023-02-01T07:39:52.850Z,12.43
2023-02-01T07:41:01.070Z,13.45
2023-02-01T07:42:03.048Z,17.35
2023-02-01T07:43:07.055Z,15.23
2023-02-01T07:44:09.057Z,13.40
2023-02-01T07:45:20.847Z,14.02
2023-02-01T07:46:23.930Z,15.05
2023-02-01T07:47:26.012Z,13.25
2023-02-01T07:48:28.465Z,12.73
2023-02-01T07:49:30.378Z,13.18
2023-02-01T07:50:32.488Z,13.60
2023-02-01T07:51:34.492Z,12.55
2023-02-01T07:52:36.440Z,14.32
2023-02-01T07:53:38.854Z,13.60
2023-02-01T07:54:40.886Z,18.83
2023-02-01T07:55:42.933Z,17.45
2023-02-01T07:56:44.948Z,14.00
2023-02-01T07:57:47.163Z,13.32
2023-02-01T07:58:53.332Z,14.68
2023-02-01T08:00:13.691Z,63.05
2023-02-01T08:01:28.087Z,18.58
2023-02-01T08:02:30.297Z,25.30
2023-02-01T08:03:32.305Z,36.63
2023-02-01T08:04:34.267Z,30.10
2023-02-01T08:05:37.928Z,63.05
2023-02-01T08:06:40.928Z,55.30
2023-02-01T08:07:42.865Z,49.83
2023-02-01T08:08:46.274Z,44.95
2023-02-01T08:09:48.309Z,33.72
2023-02-01T08:10:50.668Z,29.10
2023-02-01T08:11:52.712Z,28.15
2023-02-01T08:13:00.877Z,28.48
2023-02-01T08:14:02.939Z,32.17
2023-02-01T08:15:05.293Z,28.77
2023-02-01T08:16:09.127Z,27.20
2023-02-01T08:17:11.139Z,31.13
2023-02-01T08:18:17.155Z,28.60
2023-02-01T08:19:19.089Z,32.92
2023-02-01T08:20:24.128Z,26.98
2023-02-01T08:21:37.336Z,29.27
2023-02-01T08:22:39.399Z,30.30
2023-02-01T08:23:42.883Z,28.83
2023-02-01T08:24:45.479Z,30.92
2023-02-01T08:25:47.511Z,30.63
2023-02-01T08:26:49.477Z,21.00
2023-02-01T08:27:51.751Z,23.98
2023-02-01T08:28:57.517Z,24.77
2023-02-01T08:30:00.268Z,23.15
2023-02-01T08:31:06.532Z,22.98
2023-02-01T08:32:08.579Z,15.85
2023-02-01T08:33:10.992Z,19.15
2023-02-01T08:34:13.482Z,20.90
2023-02-01T08:35:15.664Z,19.80
2023-02-01T08:36:18.212Z,17.07
2023-02-01T08:37:20.565Z,18.52
2023-02-01T08:38:22.623Z,20.92
2023-02-01T08:39:24.856Z,19.58
2023-02-01T08:40:26.973Z,21.73
2023-02-01T08:41:30.786Z,22.23
2023-02-01T08:42:51.262Z,22.38
2023-02-01T08:43:55.171Z,24.25
2023-02-01T08:44:57.441Z,22.45
2023-02-01T08:45:59.362Z,22.40
2023-02-01T08:47:01.753Z,23.50
2023-02-01T08:48:03.851Z,19.60
2023-02-01T08:49:06.206Z,19.70
2023-02-01T08:50:09.711Z,25.23
2023-02-01T08:51:13.726Z,19.70
2023-02-01T08:52:16.468Z,19.77
2023-02-01T08:53:18.829Z,19.45
2023-02-01T08:54:22.358Z,19.30
2023-02-01T08:55:24.415Z,20.00
2023-02-01T08:56:26.482Z,17.08
2023-02-01T08:57:28.848Z,15.20
2023-02-01T08:58:31.180Z,19.43
2023-02-01T08:59:33.428Z,19.02
2023-02-01T09:00:35.374Z,19.60
2023-02-01T09:01:37.435Z,24.00
2023-02-01T09:02:39.616Z,20.23
2023-02-01T09:03:42.039Z,21.48
2023-02-01T09:04:44.498Z,19.80
2023-02-01T09:05:49.817Z,21.05
2023-02-01T09:06:52.100Z,19.75
2023-02-01T09:07:54.470Z,21.17
2023-02-01T09:08:57.346Z,21.57
2023-02-01T09:10:01.969Z,23.33
2023-02-01T09:11:06.722Z,22.58
2023-02-01T09:12:08.816Z,22.27
2023-02-01T09:13:10.911Z,21.45
2023-02-01T09:14:12.954Z,21.73
2023-02-01T09:15:15.108Z,20.45
2023-02-01T09:16:17.301Z,22.98
2023-02-01T09:17:19.351Z,20.40
2023-02-01T09:18:21.653Z,18.58
2023-02-01T09:19:26.277Z,19.17
2023-02-01T09:20:28.831Z,19.58
2023-02-01T09:21:31.060Z,20.77
2023-02-01T09:22:33.129Z,19.23
2023-02-01T09:23:35.811Z,18.60
2023-02-01T09:24:37.921Z,18.10
2023-02-01T09:25:40.210Z,23.08
2023-02-01T09:26:42.327Z,19.42
2023-02-01T09:27:44.388Z,19.05
2023-02-01T09:28:46.382Z,17.60
2023-02-01T09:29:53.321Z,18.23
2023-02-01T09:31:02.458Z,19.15
2023-02-01T09:32:05.075Z,21.50
2023-02-01T09:33:07.135Z,17.67
2023-02-01T09:34:09.420Z,17.73
2023-02-01T09:35:11.422Z,22.23
2023-02-01T09:36:13.380Z,19.42
2023-02-01T09:37:15.678Z,19.38
2023-02-01T09:38:17.691Z,18.05
2023-02-01T09:39:20.577Z,22.35
2023-02-01T09:40:23.683Z,21.47
2023-02-01T09:41:50.741Z,19.45
2023-02-01T09:43:40.900Z,18.95
2023-02-01T09:45:01.712Z,20.17
2023-02-01T09:46:24.659Z,24.40
2023-02-01T09:47:27.402Z,20.13
2023-02-01T09:48:43.954Z,19.42
2023-02-01T09:50:15.574Z,21.00
2023-02-01T09:51:24.491Z,20.05
2023-02-01T09:52:37.287Z,17.27
2023-02-01T09:53:43.921Z,18.17
2023-02-01T09:54:58.377Z,20.35
2023-02-01T09:56:25.857Z,21.25
2023-02-01T09:57:54.744Z,19.98
2023-02-01T09:59:02.668Z,21.10
2023-02-01T10:00:23.044Z,21.73
2023-02-01T10:01:27.262Z,25.02
2023-02-01T10:02:31.361Z,21.02
2023-02-01T10:03:36.747Z,23.60
2023-02-01T10:04:38.792Z,24.73
2023-02-01T10:05:59.215Z,27.40
2023-02-01T10:07:04.032Z,25.30
2023-02-01T10:08:27.823Z,24.38
2023-02-01T10:09:35.623Z,26.58
2023-02-01T10:12:22.679Z,20.48
2023-02-01T10:13:52.681Z,18.33
2023-02-01T10:15:30.953Z,19.27
2023-02-01T10:16:35.787Z,19.60
2023-02-01T10:17:43.150Z,16.88
2023-02-01T10:19:02.619Z,25.67
2023-02-01T10:20:13.433Z,16.58
2023-02-01T10:21:53.320Z,14.23
2023-02-01T10:23:33.320Z,16.08
2023-02-01T10:25:01.981Z,16.45
2023-02-01T10:26:03.979Z,18.13
2023-02-01T10:27:13.954Z,17.75
2023-02-01T10:28:18.235Z,19.50
2023-02-01T10:29:23.622Z,15.02
2023-02-01T10:30:33.886Z,18.25
2023-02-01T10:31:39.015Z,18.20
2023-02-01T10:32:41.849Z,18.13
2023-02-01T10:34:01.095Z,15.32
2023-02-01T10:35:14.012Z,14.35
2023-02-01T10:36:37.322Z,16.27
2023-02-01T10:37:42.679Z,13.55
2023-02-01T10:38:45.707Z,11.93
2023-02-01T10:39:50.828Z,12.82
2023-02-01T10:41:02.106Z,13.75
2023-02-01T10:42:04.359Z,21.85
2023-02-01T10:43:06.313Z,17.37
2023-02-01T10:44:19.165Z,13.55
2023-02-01T10:45:25.286Z,14.48
2023-02-01T10:46:27.521Z,16.38
2023-02-01T10:47:29.587Z,20.02
2023-02-01T10:48:33.072Z,19.90
2023-02-01T10:49:57.625Z,15.60
2023-02-01T10:51:25.933Z,13.90
2023-02-01T10:53:01.806Z,18.50
2023-02-01T10:54:33.151Z,15.82
2023-02-01T10:55:55.577Z,26.13
2023-02-01T10:56:57.619Z,24.73
2023-02-01T10:58:05.066Z,14.77
2023-02-01T10:59:16.974Z,14.93
2023-02-01T11:00:23.478Z,14.32
2023-02-01T11:01:41.929Z,16.38
2023-02-01T11:02:46.044Z,15.73
2023-02-01T11:04:05.040Z,15.80
2023-02-01T11:05:11.204Z,17.45
2023-02-01T11:06:47.081Z,14.48
2023-02-01T11:07:56.342Z,15.63
2023-02-01T11:09:22.953Z,17.02
2023-02-01T11:11:06.761Z,14.43
2023-02-01T11:12:38.065Z,15.35
2023-02-01T11:14:11.930Z,15.40
2023-02-01T11:15:25.790Z,14.25
2023-02-01T11:16:54.022Z,13.52
2023-02-01T11:17:57.519Z,13.13
2023-02-01T11:19:00.181Z,13.40
2023-02-01T11:20:16.000Z,15.32
2023-02-01T11:21:18.047Z,16.17
2023-02-01T11:22:20.083Z,31.83
2023-02-01T11:23:27.787Z,14.75
2023-02-01T11:24:39.366Z,21.48
2023-02-01T11:25:52.986Z,13.52
2023-02-01T11:26:59.227Z,15.13
2023-02-01T11:28:02.730Z,15.77
2023-02-01T11:29:10.911Z,15.70
2023-02-01T11:30:19.330Z,12.57
2023-02-01T11:31:21.915Z,12.05
2023-02-01T11:32:25.947Z,16.10
2023-02-01T11:33:36.227Z,14.68
2023-02-01T11:34:48.929Z,15.00
2023-02-01T11:35:51.082Z,13.88
2023-02-01T11:36:56.719Z,13.73
2023-02-01T11:38:00.328Z,13.52
2023-02-01T11:39:13.677Z,13.23
2023-02-01T11:40:18.487Z,12.10
2023-02-01T11:41:29.451Z,15.80
2023-02-01T11:42:32.152Z,12.85
2023-02-01T11:43:34.328Z,12.93
2023-02-01T11:44:39.374Z,14.73
2023-02-01T11:45:41.430Z,13.15
2023-02-01T11:46:43.506Z,14.95
2023-02-01T11:47:47.101Z,12.85
2023-02-01T11:48:49.418Z,13.98
2023-02-01T11:49:57.069Z,12.57
2023-02-01T11:51:06.535Z,11.18
2023-02-01T11:52:43.110Z,13.43
2023-02-01T11:54:05.255Z,11.80
2023-02-01T11:55:13.341Z,14.50
2023-02-01T11:56:26.867Z,10.88
2023-02-01T11:57:31.840Z,12.80
2023-02-01T11:58:48.950Z,14.32
2023-02-01T12:00:09.665Z,15.40
2023-02-01T12:01:15.148Z,13.02
2023-02-01T12:02:40.124Z,14.27
2023-02-01T12:04:15.191Z,12.70
2023-02-01T12:05:33.295Z,13.63
2023-02-01T12:06:59.423Z,12.73
2023-02-01T12:08:29.915Z,12.63
2023-02-01T12:09:37.471Z,11.95
2023-02-01T12:11:13.582Z,13.38
2023-02-01T12:12:15.483Z,12.75
2023-02-01T12:13:48.984Z,12.60
2023-02-01T12:15:18.371Z,12.82
2023-02-01T12:16:41.465Z,12.68
2023-02-01T12:17:55.281Z,13.80
2023-02-01T12:19:24.549Z,11.07
2023-02-01T12:20:39.057Z,14.02
2023-02-01T12:21:51.791Z,13.53
2023-02-01T12:23:29.502Z,15.90
2023-02-01T12:24:51.693Z,18.45
2023-02-01T12:26:19.313Z,14.30
2023-02-01T12:27:59.113Z,15.40
2023-02-01T12:29:06.993Z,14.35
2023-02-01T12:30:19.365Z,15.38
2023-02-01T12:31:51.811Z,14.35
2023-02-01T12:32:53.797Z,16.67
2023-02-01T12:34:23.871Z,13.35
2023-02-01T12:35:58.145Z,13.93
2023-02-01T12:37:31.454Z,18.27
2023-02-01T12:38:36.206Z,12.07
2023-02-01T12:39:50.059Z,13.45
2023-02-01T12:41:06.105Z,15.55
2023-02-01T12:42:44.130Z,13.75
2023-02-01T12:44:02.148Z,16.17
2023-02-01T12:45:21.290Z,14.25
2023-02-01T12:46:39.173Z,20.08
2023-02-01T12:47:43.681Z,17.30
2023-02-01T12:49:04.317Z,19.83
2023-02-01T12:50:09.150Z,18.23
2023-02-01T12:51:16.454Z,19.00
2023-02-01T12:52:29.850Z,14.70
2023-02-01T12:53:55.106Z,16.33
2023-02-01T12:55:07.026Z,15.93
2023-02-01T12:56:38.156Z,16.35
2023-02-01T12:57:50.481Z,13.98
2023-02-01T12:58:57.038Z,19.23
2023-02-01T13:00:24.886Z,13.48
2023-02-01T13:01:47.559Z,18.90
2023-02-01T13:02:59.050Z,14.50
2023-02-01T13:04:16.178Z,13.40
2023-02-01T13:05:25.143Z,15.80
2023-02-01T13:06:40.927Z,11.88
2023-02-01T13:07:58.048Z,11.60
2023-02-01T13:09:19.908Z,12.18
2023-02-01T13:10:46.798Z,14.68
2023-02-01T13:11:49.706Z,13.48
2023-02-01T13:13:13.388Z,11.65
2023-02-01T13:14:31.942Z,11.07
2023-02-01T13:15:41.743Z,15.73
2023-02-01T13:16:51.425Z,11.55
2023-02-01T13:17:55.776Z,12.30
2023-02-01T13:19:28.191Z,11.82
2023-02-01T13:20:44.326Z,12.82
2023-02-01T13:22:08.857Z,16.13
2023-02-01T13:23:43.236Z,12.85
2023-02-01T13:25:10.232Z,24.55
2023-02-01T13:26:39.211Z,12.38
2023-02-01T13:28:00.396Z,12.87
2023-02-01T13:29:12.176Z,12.77
2023-02-01T13:30:25.229Z,11.65
2023-02-01T13:31:40.649Z,13.20
2023-02-01T13:33:54.127Z,11.10
2023-02-01T13:34:48.363Z,13.48
2023-02-01T13:36:11.789Z,11.63
2023-02-01T13:37:52.490Z,11.15
2023-02-01T13:39:09.222Z,12.18
2023-02-01T13:40:38.302Z,16.70
2023-02-01T13:41:58.384Z,12.87
2023-02-01T13:43:22.746Z,12.90
2023-02-01T13:45:00.103Z,15.52
2023-02-01T13:46:10.357Z,13.38
2023-02-01T13:47:34.920Z,13.80
2023-02-01T13:48:58.448Z,17.73
2023-02-01T13:50:23.928Z,13.63
2023-02-01T13:51:47.483Z,12.13
2023-02-01T13:53:13.120Z,12.38
2023-02-01T13:54:37.373Z,13.98
2023-02-01T13:55:47.096Z,14.10
2023-02-01T13:56:49.068Z,14.30
2023-02-01T13:57:53.660Z,15.95
2023-02-01T13:58:55.930Z,16.65
2023-02-01T14:00:08.566Z,16.15
2023-02-01T14:01:22.666Z,15.95
2023-02-01T14:02:41.084Z,15.63
2023-02-01T14:03:51.697Z,14.07
2023-02-01T14:04:54.302Z,14.27
2023-02-01T14:05:59.033Z,11.63
2023-02-01T14:07:01.839Z,13.00
2023-02-01T14:08:06.647Z,13.70
2023-02-01T14:09:14.613Z,14.43
2023-02-01T14:10:55.217Z,15.65
2023-02-01T14:11:58.899Z,18.42
2023-02-01T14:13:23.021Z,13.88
2023-02-01T14:14:24.928Z,15.70
2023-02-01T14:15:29.253Z,15.20
2023-02-01T14:16:31.297Z,17.35
2023-02-01T14:17:37.607Z,16.77
2023-02-01T14:18:42.059Z,17.37
2023-02-01T14:19:44.014Z,18.10
2023-02-01T14:20:50.198Z,17.75
2023-02-01T14:22:02.564Z,15.60
2023-02-01T14:23:05.425Z,16.52
2023-02-01T14:24:10.431Z,16.30
2023-02-01T14:25:18.598Z,16.10
2023-02-01T14:26:25.061Z,18.13
2023-02-01T14:27:30.264Z,17.08
2023-02-01T14:28:32.387Z,21.70
2023-02-01T14:29:43.694Z,17.97
2023-02-01T14:30:46.337Z,15.10
2023-02-01T14:31:55.052Z,16.10
2023-02-01T14:32:57.106Z,18.48
2023-02-01T14:34:02.189Z,17.80
2023-02-01T14:35:08.865Z,19.38
2023-02-01T14:36:13.790Z,16.80
2023-02-01T14:37:18.812Z,18.77
2023-02-01T14:38:22.506Z,18.73
2023-02-01T14:39:43.045Z,19.23
2023-02-01T14:40:45.202Z,25.43
2023-02-01T14:41:48.835Z,20.77
2023-02-01T14:42:53.470Z,18.20